sensor_id;sensor_type;location;lat;lon;timestamp;pressure;altitude;pressure_sealevel;temperature
49593;BMP280;35499;51.482;4.264;2023-03-14T00:02:09;98972.34;;;11.28
49593;BMP280;35499;51.482;4.264;2023-03-14T00:04:35;98964.94;;;11.21
49593;BMP280;35499;51.482;4.264;2023-03-14T00:07:00;98971.13;;;11.17
49593;BMP280;35499;51.482;4.264;2023-03-14T00:09:26;98961.63;;;11.19
49593;BMP280;35499;51.482;4.264;2023-03-14T00:11:53;98961.69;;;11.18
49593;BMP280;35499;51.482;4.264;2023-03-14T00:14:18;98959.94;;;11.18
49593;BMP280;35499;51.482;4.264;2023-03-14T00:16:47;98964.41;;;11.15
49593;BMP280;35499;51.482;4.264;2023-03-14T00:19:12;98963.47;;;11.16
49593;BMP280;35499;51.482;4.264;2023-03-14T00:21:37;98966.81;;;11.18
49593;BMP280;35499;51.482;4.264;2023-03-14T00:24:03;98974.53;;;11.18
49593;BMP280;35499;51.482;4.264;2023-03-14T00:26:28;98974.53;;;11.18
49593;BMP280;35499;51.482;4.264;2023-03-14T00:28:54;98982.22;;;11.18
49593;BMP280;35499;51.482;4.264;2023-03-14T00:31:19;98979.66;;;11.18
49593;BMP280;35499;51.482;4.264;2023-03-14T00:33:45;98985.78;;;11.15
49593;BMP280;35499;51.482;4.264;2023-03-14T00:36:16;98981.75;;;11.10
49593;BMP280;35499;51.482;4.264;2023-03-14T00:38:44;98993.97;;;11.05
49593;BMP280;35499;51.482;4.264;2023-03-14T00:41:14;98993.34;;;11.00
49593;BMP280;35499;51.482;4.264;2023-03-14T00:43:40;98980.56;;;10.99
49593;BMP280;35499;51.482;4.264;2023-03-14T00:46:06;98980.56;;;10.99
49593;BMP280;35499;51.482;4.264;2023-03-14T00:48:32;98987.28;;;11.01
49593;BMP280;35499;51.482;4.264;2023-03-14T00:50:57;98973.53;;;11.02
49593;BMP280;35499;51.482;4.264;2023-03-14T00:53:23;98979.50;;;11.03
49593;BMP280;35499;51.482;4.264;2023-03-14T00:55:48;98969.94;;;11.06
49593;BMP280;35499;51.482;4.264;2023-03-14T00:58:16;98961.31;;;11.07
49593;BMP280;35499;51.482;4.264;2023-03-14T01:00:42;98976.63;;;11.10
49593;BMP280;35499;51.482;4.264;2023-03-14T01:03:08;98970.66;;;11.09
49593;BMP280;35499;51.482;4.264;2023-03-14T01:05:34;98980.03;;;11.10
49593;BMP280;35499;51.482;4.264;2023-03-14T01:08:00;98971.34;;;11.13
49593;BMP280;35499;51.482;4.264;2023-03-14T01:10:25;98985.84;;;11.14
49593;BMP280;35499;51.482;4.264;2023-03-14T01:12:51;98966.03;;;11.16
49593;BMP280;35499;51.482;4.264;2023-03-14T01:15:16;98972.00;;;11.16
49593;BMP280;35499;51.482;4.264;2023-03-14T01:17:42;98983.00;;;11.20
49593;BMP280;35499;51.482;4.264;2023-03-14T01:20:10;98965.84;;;11.20
49593;BMP280;35499;51.482;4.264;2023-03-14T01:22:37;98962.47;;;11.20
49593;BMP280;35499;51.482;4.264;2023-03-14T01:25:07;98963.19;;;11.22
49593;BMP280;35499;51.482;4.264;2023-03-14T01:27:33;98972.59;;;11.23
49593;BMP280;35499;51.482;4.264;2023-03-14T01:29:58;98956.41;;;11.21
49593;BMP280;35499;51.482;4.264;2023-03-14T01:32:24;98967.59;;;11.20
49593;BMP280;35499;51.482;4.264;2023-03-14T01:34:49;98965.16;;;11.17
49593;BMP280;35499;51.482;4.264;2023-03-14T01:37:14;98952.56;;;11.11
49593;BMP280;35499;51.482;4.264;2023-03-14T01:39:40;98954.47;;;11.08
49593;BMP280;35499;51.482;4.264;2023-03-14T01:42:05;98946.06;;;11.04
49593;BMP280;35499;51.482;4.264;2023-03-14T01:44:56;98946.19;;;11.01
49593;BMP280;35499;51.482;4.264;2023-03-14T01:47:23;98950.59;;;10.99
49593;BMP280;35499;51.482;4.264;2023-03-14T01:50:09;98942.03;;;10.99
49593;BMP280;35499;51.482;4.264;2023-03-14T01:52:40;98953.22;;;10.98
49593;BMP280;35499;51.482;4.264;2023-03-14T01:55:12;98941.38;;;10.95
49593;BMP280;35499;51.482;4.264;2023-03-14T01:57:44;98939.53;;;10.97
49593;BMP280;35499;51.482;4.264;2023-03-14T02:00:19;98934.56;;;10.94
49593;BMP280;35499;51.482;4.264;2023-03-14T02:02:48;98935.44;;;10.93
49593;BMP280;35499;51.482;4.264;2023-03-14T02:05:17;98931.22;;;10.92
49593;BMP280;35499;51.482;4.264;2023-03-14T02:07:53;98928.69;;;10.91
49593;BMP280;35499;51.482;4.264;2023-03-14T02:10:22;98928.00;;;10.88
49593;BMP280;35499;51.482;4.264;2023-03-14T02:12:49;98923.03;;;10.85
49593;BMP280;35499;51.482;4.264;2023-03-14T02:15:15;98925.59;;;10.85
49593;BMP280;35499;51.482;4.264;2023-03-14T02:17:42;98917.91;;;10.85
49593;BMP280;35499;51.482;4.264;2023-03-14T02:20:10;98928.16;;;10.85
49593;BMP280;35499;51.482;4.264;2023-03-14T02:22:40;98916.22;;;10.84
49593;BMP280;35499;51.482;4.264;2023-03-14T02:27:38;98912.88;;;10.82
49593;BMP280;35499;51.482;4.264;2023-03-14T02:32:34;98901.72;;;10.83
49593;BMP280;35499;51.482;4.264;2023-03-14T02:35:05;98911.09;;;10.84
49593;BMP280;35499;51.482;4.264;2023-03-14T02:38:04;98903.44;;;10.82
49593;BMP280;35499;51.482;4.264;2023-03-14T02:40:32;98901.78;;;10.81
49593;BMP280;35499;51.482;4.264;2023-03-14T02:42:57;98921.50;;;10.81
49593;BMP280;35499;51.482;4.264;2023-03-14T02:45:32;98910.31;;;10.82
49593;BMP280;35499;51.482;4.264;2023-03-14T02:48:03;98911.25;;;10.81
49593;BMP280;35499;51.482;4.264;2023-03-14T02:50:31;98907.00;;;10.80
49593;BMP280;35499;51.482;4.264;2023-03-14T02:52:58;98897.63;;;10.79
49593;BMP280;35499;51.482;4.264;2023-03-14T02:55:24;98893.34;;;10.79
49593;BMP280;35499;51.482;4.264;2023-03-14T02:57:51;98891.59;;;10.80
49593;BMP280;35499;51.482;4.264;2023-03-14T03:00:17;98892.50;;;10.79
49593;BMP280;35499;51.482;4.264;2023-03-14T03:02:42;98890.00;;;10.77
49593;BMP280;35499;51.482;4.264;2023-03-14T03:05:07;98883.13;;;10.78
49593;BMP280;35499;51.482;4.264;2023-03-14T03:07:33;98878.88;;;10.77
49593;BMP280;35499;51.482;4.264;2023-03-14T03:09:58;98883.13;;;10.78
49593;BMP280;35499;51.482;4.264;2023-03-14T03:12:23;98871.34;;;10.74
49593;BMP280;35499;51.482;4.264;2023-03-14T03:14:49;98883.34;;;10.73
49593;BMP280;35499;51.482;4.264;2023-03-14T03:17:14;98868.88;;;10.71
49593;BMP280;35499;51.482;4.264;2023-03-14T03:19:40;98869.88;;;10.69
49593;BMP280;35499;51.482;4.264;2023-03-14T03:22:05;98873.34;;;10.68
49593;BMP280;35499;51.482;4.264;2023-03-14T03:24:30;98877.56;;;10.69
49593;BMP280;35499;51.482;4.264;2023-03-14T03:26:56;98872.38;;;10.70
49593;BMP280;35499;51.482;4.264;2023-03-14T03:29:21;98882.56;;;10.72
49593;BMP280;35499;51.482;4.264;2023-03-14T03:31:46;98883.50;;;10.71
49593;BMP280;35499;51.482;4.264;2023-03-14T03:34:13;98890.25;;;10.72
49593;BMP280;35499;51.482;4.264;2023-03-14T03:36:39;98875.63;;;10.73
49593;BMP280;35499;51.482;4.264;2023-03-14T03:39:04;98891.88;;;10.74
49593;BMP280;35499;51.482;4.264;2023-03-14T03:41:30;98885.84;;;10.75
49593;BMP280;35499;51.482;4.264;2023-03-14T03:43:55;98892.63;;;10.76
49593;BMP280;35499;51.482;4.264;2023-03-14T03:46:21;98893.44;;;10.76
49593;BMP280;35499;51.482;4.264;2023-03-14T03:48:46;98888.31;;;10.76
49593;BMP280;35499;51.482;4.264;2023-03-14T03:51:13;98888.41;;;10.75
49593;BMP280;35499;51.482;4.264;2023-03-14T03:53:39;98892.78;;;10.73
49593;BMP280;35499;51.482;4.264;2023-03-14T03:56:06;98890.19;;;10.73
49593;BMP280;35499;51.482;4.264;2023-03-14T03:58:31;98888.47;;;10.73
49593;BMP280;35499;51.482;4.264;2023-03-14T04:00:57;98901.31;;;10.73
49593;BMP280;35499;51.482;4.264;2023-03-14T04:03:22;98890.19;;;10.73
49593;BMP280;35499;51.482;4.264;2023-03-14T04:05:58;98897.13;;;10.71
49593;BMP280;35499;51.482;4.264;2023-03-14T04:08:23;98902.25;;;10.71
49593;BMP280;35499;51.482;4.264;2023-03-14T04:10:49;98892.81;;;10.72
49593;BMP280;35499;51.482;4.264;2023-03-14T04:13:14;98888.63;;;10.71
49593;BMP280;35499;51.482;4.264;2023-03-14T04:15:39;98876.69;;;10.70
49593;BMP280;35499;51.482;4.264;2023-03-14T04:18:05;98880.16;;;10.69
49593;BMP280;35499;51.482;4.264;2023-03-14T04:20:30;98879.25;;;10.70
49593;BMP280;35499;51.482;4.264;2023-03-14T04:22:55;98881.88;;;10.68
49593;BMP280;35499;51.482;4.264;2023-03-14T04:25:20;98892.19;;;10.67
49593;BMP280;35499;51.482;4.264;2023-03-14T04:27:47;98882.03;;;10.65
49593;BMP280;35499;51.482;4.264;2023-03-14T04:30:12;98882.91;;;10.64
49593;BMP280;35499;51.482;4.264;2023-03-14T04:32:39;98888.88;;;10.65
49593;BMP280;35499;51.482;4.264;2023-03-14T04:35:05;98883.66;;;10.66
49593;BMP280;35499;51.482;4.264;2023-03-14T04:37:30;98879.47;;;10.65
49593;BMP280;35499;51.482;4.264;2023-03-14T04:39:57;98885.44;;;10.66
49593;BMP280;35499;51.482;4.264;2023-03-14T04:42:22;98888.78;;;10.66
49593;BMP280;35499;51.482;4.264;2023-03-14T04:44:47;98884.59;;;10.65
49593;BMP280;35499;51.482;4.264;2023-03-14T04:47:14;98876.88;;;10.65
49593;BMP280;35499;51.482;4.264;2023-03-14T04:49:39;98869.31;;;10.62
49593;BMP280;35499;51.482;4.264;2023-03-14T04:52:05;98876.25;;;10.60
49593;BMP280;35499;51.482;4.264;2023-03-14T04:54:30;98876.25;;;10.60
49593;BMP280;35499;51.482;4.264;2023-03-14T04:56:55;98867.78;;;10.58
49593;BMP280;35499;51.482;4.264;2023-03-14T04:59:21;98864.34;;;10.59
49593;BMP280;35499;51.482;4.264;2023-03-14T05:01:46;98859.25;;;10.58
49593;BMP280;35499;51.482;4.264;2023-03-14T05:04:13;98857.59;;;10.57
49593;BMP280;35499;51.482;4.264;2023-03-14T05:06:39;98851.72;;;10.55
49593;BMP280;35499;51.482;4.264;2023-03-14T05:09:04;98860.31;;;10.54
49593;BMP280;35499;51.482;4.264;2023-03-14T05:11:30;98856.13;;;10.52
49593;BMP280;35499;51.482;4.264;2023-03-14T05:13:55;98852.81;;;10.50
49593;BMP280;35499;51.482;4.264;2023-03-14T05:16:20;98859.00;;;10.46
49593;BMP280;35499;51.482;4.264;2023-03-14T05:18:46;98863.34;;;10.44
49593;BMP280;35499;51.482;4.264;2023-03-14T05:21:11;98868.63;;;10.41
49593;BMP280;35499;51.482;4.264;2023-03-14T05:23:36;98863.59;;;10.38
49593;BMP280;35499;51.482;4.264;2023-03-14T05:26:02;98865.41;;;10.36
49593;BMP280;35499;51.482;4.264;2023-03-14T05:28:27;98872.47;;;10.31
49593;BMP280;35499;51.482;4.264;2023-03-14T05:30:53;98868.47;;;10.26
49593;BMP280;35499;51.482;4.264;2023-03-14T05:33:18;98863.59;;;10.20
49593;BMP280;35499;51.482;4.264;2023-03-14T05:35:44;98866.34;;;10.16
49593;BMP280;35499;51.482;4.264;2023-03-14T05:38:09;98868.28;;;10.11
49593;BMP280;35499;51.482;4.264;2023-03-14T05:40:35;98875.19;;;10.09
49593;BMP280;35499;51.482;4.264;2023-03-14T05:43:00;98867.66;;;10.06
49593;BMP280;35499;51.482;4.264;2023-03-14T05:45:26;98870.31;;;10.03
49593;BMP280;35499;51.482;4.264;2023-03-14T05:47:51;98868.66;;;10.02
49593;BMP280;35499;51.482;4.264;2023-03-14T05:50:16;98860.22;;;10.00
49593;BMP280;35499;51.482;4.264;2023-03-14T05:52:42;98869.69;;;9.98
49593;BMP280;35499;51.482;4.264;2023-03-14T05:55:07;98939.75;;;9.99
49593;BMP280;35499;51.482;4.264;2023-03-14T05:57:33;98931.66;;;9.67
49593;BMP280;35499;51.482;4.264;2023-03-14T05:59:58;98939.53;;;9.21
49593;BMP280;35499;51.482;4.264;2023-03-14T06:02:23;98945.06;;;8.88
49593;BMP280;35499;51.482;4.264;2023-03-14T06:04:49;98944.88;;;8.72
49593;BMP280;35499;51.482;4.264;2023-03-14T06:07:14;98950.22;;;8.66
49593;BMP280;35499;51.482;4.264;2023-03-14T06:09:39;98976.75;;;8.62
49593;BMP280;35499;51.482;4.264;2023-03-14T06:12:05;98997.34;;;8.59
49593;BMP280;35499;51.482;4.264;2023-03-14T06:14:31;99006.78;;;8.57
49593;BMP280;35499;51.482;4.264;2023-03-14T06:16:56;99012.06;;;8.53
49593;BMP280;35499;51.482;4.264;2023-03-14T06:19:21;99024.19;;;8.48
49593;BMP280;35499;51.482;4.264;2023-03-14T06:21:46;99023.44;;;8.44
49593;BMP280;35499;51.482;4.264;2023-03-14T06:24:12;99027.94;;;8.38
49593;BMP280;35499;51.482;4.264;2023-03-14T06:26:37;99040.00;;;8.35
49593;BMP280;35499;51.482;4.264;2023-03-14T06:29:02;99050.38;;;8.30
49593;BMP280;35499;51.482;4.264;2023-03-14T06:31:32;99059.13;;;8.23
49593;BMP280;35499;51.482;4.264;2023-03-14T06:33:57;99071.25;;;8.17
49593;BMP280;35499;51.482;4.264;2023-03-14T06:36:23;99077.34;;;8.13
49593;BMP280;35499;51.482;4.264;2023-03-14T06:38:48;99089.41;;;8.10
49593;BMP280;35499;51.482;4.264;2023-03-14T06:41:13;99094.59;;;8.07
49593;BMP280;35499;51.482;4.264;2023-03-14T06:43:39;99111.69;;;8.06
49593;BMP280;35499;51.482;4.264;2023-03-14T06:46:05;99127.06;;;8.05
49593;BMP280;35499;51.482;4.264;2023-03-14T06:48:30;99139.00;;;8.04
49593;BMP280;35499;51.482;4.264;2023-03-14T06:50:55;99144.28;;;7.99
49593;BMP280;35499;51.482;4.264;2023-03-14T06:53:21;99142.78;;;7.92
49593;BMP280;35499;51.482;4.264;2023-03-14T06:55:46;99163.34;;;7.87
49593;BMP280;35499;51.482;4.264;2023-03-14T06:58:11;99173.66;;;7.85
49593;BMP280;35499;51.482;4.264;2023-03-14T07:00:37;99182.19;;;7.84
49593;BMP280;35499;51.482;4.264;2023-03-14T07:03:02;99187.44;;;7.79
49593;BMP280;35499;51.482;4.264;2023-03-14T07:05:28;99201.25;;;7.72
49593;BMP280;35499;51.482;4.264;2023-03-14T07:07:53;99211.59;;;7.68
49593;BMP280;35499;51.482;4.264;2023-03-14T07:10:18;99226.09;;;7.68
49593;BMP280;35499;51.482;4.264;2023-03-14T07:12:44;99224.44;;;7.67
49593;BMP280;35499;51.482;4.264;2023-03-14T07:15:09;99230.31;;;7.68
49593;BMP280;35499;51.482;4.264;2023-03-14T07:17:35;99248.19;;;7.70
49593;BMP280;35499;51.482;4.264;2023-03-14T07:20:00;99251.63;;;7.68
49593;BMP280;35499;51.482;4.264;2023-03-14T07:22:26;99251.69;;;7.66
49593;BMP280;35499;51.482;4.264;2023-03-14T07:24:51;99264.50;;;7.65
49593;BMP280;35499;51.482;4.264;2023-03-14T07:27:16;99280.69;;;7.64
49593;BMP280;35499;51.482;4.264;2023-03-14T07:29:42;99285.81;;;7.64
49593;BMP280;35499;51.482;4.264;2023-03-14T07:32:07;99291.66;;;7.67
49593;BMP280;35499;51.482;4.264;2023-03-14T07:34:33;99295.88;;;7.69
49593;BMP280;35499;51.482;4.264;2023-03-14T07:36:59;99308.53;;;7.72
49593;BMP280;35499;51.482;4.264;2023-03-14T07:39:24;99303.38;;;7.75
49593;BMP280;35499;51.482;4.264;2023-03-14T07:41:50;99316.03;;;7.80
49593;BMP280;35499;51.482;4.264;2023-03-14T07:44:15;99321.03;;;7.83
49593;BMP280;35499;51.482;4.264;2023-03-14T07:46:40;99333.78;;;7.84
49593;BMP280;35499;51.482;4.264;2023-03-14T07:49:06;99345.69;;;7.85
49593;BMP280;35499;51.482;4.264;2023-03-14T07:51:31;99355.19;;;7.80
49593;BMP280;35499;51.482;4.264;2023-03-14T07:53:56;99356.16;;;7.76
49593;BMP280;35499;51.482;4.264;2023-03-14T07:56:22;99376.50;;;7.79
49593;BMP280;35499;51.482;4.264;2023-03-14T07:58:47;99379.84;;;7.81
49593;BMP280;35499;51.482;4.264;2023-03-14T08:01:13;99383.19;;;7.83
49593;BMP280;35499;51.482;4.264;2023-03-14T08:03:39;99397.69;;;7.83
49593;BMP280;35499;51.482;4.264;2023-03-14T08:06:04;99401.88;;;7.85
49593;BMP280;35499;51.482;4.264;2023-03-14T08:08:29;99413.81;;;7.85
49593;BMP280;35499;51.482;4.264;2023-03-14T08:10:55;99421.50;;;7.83
49593;BMP280;35499;51.482;4.264;2023-03-14T08:13:20;99431.63;;;7.87
49593;BMP280;35499;51.482;4.264;2023-03-14T08:15:48;99432.31;;;7.94
49593;BMP280;35499;51.482;4.264;2023-03-14T08:18:13;99435.59;;;7.97
49593;BMP280;35499;51.482;4.264;2023-03-14T08:20:38;99449.22;;;8.01
49593;BMP280;35499;51.482;4.264;2023-03-14T08:23:04;99461.03;;;8.04
49593;BMP280;35499;51.482;4.264;2023-03-14T08:25:29;99472.84;;;8.08
49593;BMP280;35499;51.482;4.264;2023-03-14T08:27:55;99477.06;;;8.09
49593;BMP280;35499;51.482;4.264;2023-03-14T08:30:21;99485.66;;;8.07
49593;BMP280;35499;51.482;4.264;2023-03-14T08:32:47;99493.94;;;8.16
49593;BMP280;35499;51.482;4.264;2023-03-14T08:35:13;99502.09;;;8.30
49593;BMP280;35499;51.482;4.264;2023-03-14T08:37:38;99512.94;;;8.38
49593;BMP280;35499;51.482;4.264;2023-03-14T08:40:06;99526.53;;;8.40
49593;BMP280;35499;51.482;4.264;2023-03-14T08:42:33;99531.50;;;8.45
49593;BMP280;35499;51.482;4.264;2023-03-14T08:44:58;99546.50;;;8.57
49593;BMP280;35499;51.482;4.264;2023-03-14T08:47:23;99548.56;;;8.76
49593;BMP280;35499;51.482;4.264;2023-03-14T08:49:49;99561.94;;;8.85
49593;BMP280;35499;51.482;4.264;2023-03-14T08:52:14;99558.75;;;8.77
49593;BMP280;35499;51.482;4.264;2023-03-14T08:54:41;99570.19;;;8.65
49593;BMP280;35499;51.482;4.264;2023-03-14T08:57:08;99582.19;;;8.63
49593;BMP280;35499;51.482;4.264;2023-03-14T08:59:33;99582.97;;;8.66
49593;BMP280;35499;51.482;4.264;2023-03-14T09:01:58;99599.66;;;9.09
49593;BMP280;35499;51.482;4.264;2023-03-14T09:04:24;99596.06;;;10.00
49593;BMP280;35499;51.482;4.264;2023-03-14T09:06:49;99602.22;;;10.45
49593;BMP280;35499;51.482;4.264;2023-03-14T09:09:14;99607.41;;;10.44
49593;BMP280;35499;51.482;4.264;2023-03-14T09:11:40;99631.75;;;10.31
49593;BMP280;35499;51.482;4.264;2023-03-14T09:14:06;99646.88;;;10.15
49593;BMP280;35499;51.482;4.264;2023-03-14T09:16:33;99662.94;;;9.93
49593;BMP280;35499;51.482;4.264;2023-03-14T09:18:58;99683.06;;;9.78
49593;BMP280;35499;51.482;4.264;2023-03-14T09:21:25;99691.25;;;9.60
49593;BMP280;35499;51.482;4.264;2023-03-14T09:23:51;99698.41;;;9.48
49593;BMP280;35499;51.482;4.264;2023-03-14T09:26:16;99711.19;;;9.49
49593;BMP280;35499;51.482;4.264;2023-03-14T09:28:41;99713.19;;;9.68
49593;BMP280;35499;51.482;4.264;2023-03-14T09:31:08;99734.25;;;9.81
49593;BMP280;35499;51.482;4.264;2023-03-14T09:33:34;99736.69;;;9.85
49593;BMP280;35499;51.482;4.264;2023-03-14T09:35:59;99747.19;;;9.75
49593;BMP280;35499;51.482;4.264;2023-03-14T09:38:25;99747.66;;;9.59
49593;BMP280;35499;51.482;4.264;2023-03-14T09:40:50;99764.16;;;9.49
49593;BMP280;35499;51.482;4.264;2023-03-14T09:43:16;99784.94;;;9.39
49593;BMP280;35499;51.482;4.264;2023-03-14T09:45:43;99792.78;;;9.33
49593;BMP280;35499;51.482;4.264;2023-03-14T09:48:22;99791.34;;;9.54
49593;BMP280;35499;51.482;4.264;2023-03-14T09:50:54;99806.25;;;10.01
49593;BMP280;35499;51.482;4.264;2023-03-14T09:53:25;99801.75;;;10.37
49593;BMP280;35499;51.482;4.264;2023-03-14T09:55:52;99811.94;;;10.67
49593;BMP280;35499;51.482;4.264;2023-03-14T09:58:23;99813.38;;;11.02
49593;BMP280;35499;51.482;4.264;2023-03-14T10:04:35;99837.22;;;11.58
49593;BMP280;35499;51.482;4.264;2023-03-14T10:07:04;99835.38;;;12.09
49593;BMP280;35499;51.482;4.264;2023-03-14T10:09:29;99842.78;;;12.85
49593;BMP280;35499;51.482;4.264;2023-03-14T10:11:56;99839.88;;;13.34
49593;BMP280;35499;51.482;4.264;2023-03-14T10:14:49;99840.25;;;13.85
49593;BMP280;35499;51.482;4.264;2023-03-14T10:17:16;99845.41;;;14.24
49593;BMP280;35499;51.482;4.264;2023-03-14T10:19:58;99865.16;;;13.86
49593;BMP280;35499;51.482;4.264;2023-03-14T10:22:26;99873.75;;;13.65
49593;BMP280;35499;51.482;4.264;2023-03-14T10:24:57;99884.94;;;13.45
49593;BMP280;35499;51.482;4.264;2023-03-14T10:27:30;99892.72;;;13.24
49593;BMP280;35499;51.482;4.264;2023-03-14T10:29:58;99905.22;;;13.12
49593;BMP280;35499;51.482;4.264;2023-03-14T10:32:45;99920.72;;;12.67
49593;BMP280;35499;51.482;4.264;2023-03-14T10:40:20;99979.47;;;11.03
49593;BMP280;35499;51.482;4.264;2023-03-14T10:42:48;100000.63;;;10.22
49593;BMP280;35499;51.482;4.264;2023-03-14T10:45:38;100005.38;;;9.70
49593;BMP280;35499;51.482;4.264;2023-03-14T10:48:22;100033.56;;;9.33
49593;BMP280;35499;51.482;4.264;2023-03-14T10:50:50;100040.19;;;9.04
49593;BMP280;35499;51.482;4.264;2023-03-14T10:53:18;100050.00;;;8.85
49593;BMP280;35499;51.482;4.264;2023-03-14T10:55:44;100051.72;;;8.83
49593;BMP280;35499;51.482;4.264;2023-03-14T10:58:25;100057.38;;;8.98
49593;BMP280;35499;51.482;4.264;2023-03-14T11:00:57;100067.28;;;9.52
49593;BMP280;35499;51.482;4.264;2023-03-14T11:03:26;100052.53;;;10.64
49593;BMP280;35499;51.482;4.264;2023-03-14T11:05:56;100060.09;;;11.56
49593;BMP280;35499;51.482;4.264;2023-03-14T11:08:48;100057.00;;;11.73
49593;BMP280;35499;51.482;4.264;2023-03-14T11:11:29;100075.28;;;11.36
49593;BMP280;35499;51.482;4.264;2023-03-14T11:16:49;100094.31;;;10.70
49593;BMP280;35499;51.482;4.264;2023-03-14T11:22:32;100106.00;;;11.69
49593;BMP280;35499;51.482;4.264;2023-03-14T11:25:13;100097.09;;;12.81
49593;BMP280;35499;51.482;4.264;2023-03-14T11:28:05;100100.97;;;13.83
49593;BMP280;35499;51.482;4.264;2023-03-14T11:33:47;100107.16;;;14.21
49593;BMP280;35499;51.482;4.264;2023-03-14T11:36:20;100129.91;;;13.24
49593;BMP280;35499;51.482;4.264;2023-03-14T11:41:38;100169.81;;;11.26
49593;BMP280;35499;51.482;4.264;2023-03-14T11:44:11;100170.94;;;10.85
49593;BMP280;35499;51.482;4.264;2023-03-14T11:47:29;100185.81;;;10.73
49593;BMP280;35499;51.482;4.264;2023-03-14T11:51:57;100181.97;;;10.88
49593;BMP280;35499;51.482;4.264;2023-03-14T11:54:48;100183.72;;;11.19
49593;BMP280;35499;51.482;4.264;2023-03-14T11:57:18;100191.03;;;11.33
49593;BMP280;35499;51.482;4.264;2023-03-14T12:02:46;100211.44;;;11.07
49593;BMP280;35499;51.482;4.264;2023-03-14T12:10:45;100226.97;;;11.02
49593;BMP280;35499;51.482;4.264;2023-03-14T12:13:13;100232.84;;;11.07
49593;BMP280;35499;51.482;4.264;2023-03-14T12:15:41;100234.09;;;10.91
49593;BMP280;35499;51.482;4.264;2023-03-14T12:18:26;100256.34;;;10.92
49593;BMP280;35499;51.482;4.264;2023-03-14T12:21:03;100251.06;;;10.98
49593;BMP280;35499;51.482;4.264;2023-03-14T12:23:49;100257.00;;;11.00
49593;BMP280;35499;51.482;4.264;2023-03-14T12:28:49;100257.41;;;11.17
49593;BMP280;35499;51.482;4.264;2023-03-14T12:36:47;100277.59;;;11.94
49593;BMP280;35499;51.482;4.264;2023-03-14T12:42:38;100290.34;;;11.67
49593;BMP280;35499;51.482;4.264;2023-03-14T12:45:34;100289.44;;;11.69
49593;BMP280;35499;51.482;4.264;2023-03-14T12:50:41;100305.72;;;11.99
49593;BMP280;35499;51.482;4.264;2023-03-14T12:53:15;100309.22;;;11.97
49593;BMP280;35499;51.482;4.264;2023-03-14T13:01:16;100332.41;;;11.33
49593;BMP280;35499;51.482;4.264;2023-03-14T13:03:47;100337.75;;;11.25
49593;BMP280;35499;51.482;4.264;2023-03-14T13:12:00;100363.81;;;11.10
49593;BMP280;35499;51.482;4.264;2023-03-14T13:14:28;100369.56;;;11.19
49593;BMP280;35499;51.482;4.264;2023-03-14T13:16:54;100377.19;;;11.22
49593;BMP280;35499;51.482;4.264;2023-03-14T13:19:28;100393.41;;;11.26
49593;BMP280;35499;51.482;4.264;2023-03-14T13:22:05;100397.88;;;11.18
49593;BMP280;35499;51.482;4.264;2023-03-14T13:24:34;100412.69;;;11.07
49593;BMP280;35499;51.482;4.264;2023-03-14T13:27:00;100417.63;;;10.79
49593;BMP280;35499;51.482;4.264;2023-03-14T13:29:30;100417.19;;;10.61
49593;BMP280;35499;51.482;4.264;2023-03-14T13:32:31;100429.75;;;10.33
49593;BMP280;35499;51.482;4.264;2023-03-14T13:34:50;100435.91;;;10.24
49593;BMP280;35499;51.482;4.264;2023-03-14T13:37:26;100447.31;;;10.10
49593;BMP280;35499;51.482;4.264;2023-03-14T13:39:56;100458.44;;;10.08
49593;BMP280;35499;51.482;4.264;2023-03-14T13:42:26;100463.69;;;10.02
49593;BMP280;35499;51.482;4.264;2023-03-14T13:44:53;100474.94;;;9.95
49593;BMP280;35499;51.482;4.264;2023-03-14T13:47:21;100472.47;;;9.89
49593;BMP280;35499;51.482;4.264;2023-03-14T13:49:48;100491.28;;;9.88
49593;BMP280;35499;51.482;4.264;2023-03-14T13:52:41;100493.19;;;9.78
49593;BMP280;35499;51.482;4.264;2023-03-14T13:55:15;100506.97;;;9.71
49593;BMP280;35499;51.482;4.264;2023-03-14T13:57:48;100512.19;;;9.62
49593;BMP280;35499;51.482;4.264;2023-03-14T14:00:32;100516.59;;;9.56
49593;BMP280;35499;51.482;4.264;2023-03-14T14:02:59;100530.28;;;9.53
49593;BMP280;35499;51.482;4.264;2023-03-14T14:05:29;100536.19;;;9.58
49593;BMP280;35499;51.482;4.264;2023-03-14T14:07:56;100533.47;;;9.68
49593;BMP280;35499;51.482;4.264;2023-03-14T14:10:22;100552.16;;;9.78
49593;BMP280;35499;51.482;4.264;2023-03-14T14:13:01;100553.69;;;9.89
49593;BMP280;35499;51.482;4.264;2023-03-14T14:15:31;100563.03;;;9.93
49593;BMP280;35499;51.482;4.264;2023-03-14T14:18:02;100575.81;;;9.96
49593;BMP280;35499;51.482;4.264;2023-03-14T14:20:48;100578.44;;;9.91
49593;BMP280;35499;51.482;4.264;2023-03-14T14:23:19;100593.09;;;9.83
49593;BMP280;35499;51.482;4.264;2023-03-14T14:25:50;100598.31;;;9.76
49593;BMP280;35499;51.482;4.264;2023-03-14T14:28:17;100601.06;;;9.63
49593;BMP280;35499;51.482;4.264;2023-03-14T14:30:45;100602.94;;;9.52
49593;BMP280;35499;51.482;4.264;2023-03-14T14:33:20;100614.22;;;9.41
49593;BMP280;35499;51.482;4.264;2023-03-14T14:36:00;100625.41;;;9.33
49593;BMP280;35499;51.482;4.264;2023-03-14T14:38:26;100634.88;;;9.27
49593;BMP280;35499;51.482;4.264;2023-03-14T14:40:54;100644.44;;;9.13
49593;BMP280;35499;51.482;4.264;2023-03-14T14:43:23;100654.88;;;8.97
49593;BMP280;35499;51.482;4.264;2023-03-14T14:45:51;100645.56;;;8.87
49593;BMP280;35499;51.482;4.264;2023-03-14T14:48:22;100655.88;;;8.83
49593;BMP280;35499;51.482;4.264;2023-03-14T14:50:53;100649.94;;;8.79
49593;BMP280;35499;51.482;4.264;2023-03-14T14:53:30;100667.03;;;8.77
49593;BMP280;35499;51.482;4.264;2023-03-14T14:56:04;100663.66;;;8.73
49593;BMP280;35499;51.482;4.264;2023-03-14T14:58:36;100671.38;;;8.70
49593;BMP280;35499;51.482;4.264;2023-03-14T15:03:38;100690.19;;;8.66
49593;BMP280;35499;51.482;4.264;2023-03-14T15:06:04;100698.72;;;8.66
49593;BMP280;35499;51.482;4.264;2023-03-14T15:08:30;100704.75;;;8.59
49593;BMP280;35499;51.482;4.264;2023-03-14T15:10:56;100693.69;;;8.53
49593;BMP280;35499;51.482;4.264;2023-03-14T15:13:21;100716.72;;;8.53
49593;BMP280;35499;51.482;4.264;2023-03-14T15:15:47;100732.09;;;8.55
49593;BMP280;35499;51.482;4.264;2023-03-14T15:18:15;100723.56;;;8.56
49593;BMP280;35499;51.482;4.264;2023-03-14T15:20:42;100719.25;;;8.59
49593;BMP280;35499;51.482;4.264;2023-03-14T15:23:11;100732.03;;;8.60